Airfield :
LOGIN :

Register | Disclaimer

   EN    FR    IT 

 










Legend :    VFR   Marginal VFR   IFR   Intensive IFR   Very Intensive IFR
Visi :
Ceiling :
>= 8 km
>= 3000ft
5 to 8 km
1000 to 3000 ft
1500m to 5 km
500 to 1000 ft
800 to 1500m
200 to 500 ft
< 800m
< 200 ft
Symbols :   Thunderstorms  Fog  Heavy snow  Heavy precipitations  Wind > 20 kt
SIGMETs :     Misc.  Thunderstorms  Icing  Turbulence  Mountain Waves  Volcanic Ashes






- Airport Elevation : 2425 ft


ETHA - Altenstadt Army

CURRENT METAR :
  • 220020Z AUTO 28013KT 9999 // ////// 10/01 Q1010 ///

EXPIRED METARs :
  • 212320Z AUTO 21004KT 9999 // ////// 07/02 Q1012 ///
  • 212220Z AUTO 17005KT 9999 // ////// 07/02 Q1012 ///
  • 212120Z AUTO 25005KT 9999 // ////// 06/02 Q1013 ///
  • 212020Z AUTO 24008KT 9999 // ////// 08/M01 Q1014 ///

Expired Forecast.



MET'MAP, your aeronautical weather chart ! - Copyright ORBIFLY December 2007 - Disclaimer

ORBIFLY MET'MAP TEAM :

Programming & Development : Alexandra Zaïnal
Original concept : Baudouin d'Aumeries
Technical & hardware support : Manuel Goepfert
Assistance : Marc-Olivier Méhu




SOURCES & CREDITS :

   NOAA